Latest Weather Observations for Cocos Island

IDW60801

Issued at 6:32 pm WST Monday 30 May 2016 (issued every 30 minutes, with the page automatically refreshed every 10 minutes)

About weather observations | Map of weather stations | Latest weather observations for WA | Other Formats
Station Details ID: 200284 Name: COCOS ISLAND AIRPORT Lat: -12.19 Lon: 96.83 Height: 3.0 m
Data from the previous 72 hours. | See also: Recent months at Cocos Island
Date/Time
WST
Temp
°C
App
Temp
°C
Dew
Point
Rel
Hum
%
Delta-T
°C
Wind Press
QNH
hPa
Press
MSL
hPa
Rain
since 9 am
mm
Dir
 
Spd
km/h
Gust
km/h
Spd
kts
Gust
kts
30/06:30pm 27.5 30.8 25.1 87 1.7 NNE 17 20 9 11 1009.7 - 1.8
30/06:01pm 27.6 31.0 25.2 87 1.7 NE 17 20 9 11 1009.6 - 1.8
30/06:00pm 27.6 31.0 25.3 87 1.6 NE 17 20 9 11 1009.6 - 1.8
30/05:37pm 27.2 30.1 25.1 88 1.5 NE 19 26 10 14 1009.6 - 0.8
30/05:30pm 28.2 32.8 25.4 85 2.0 N 11 19 6 10 1009.5 - 0.2
30/05:00pm 28.3 32.3 25.0 82 2.3 ENE 13 19 7 10 1009.3 1009.2 0.2
30/04:30pm 28.2 31.5 25.1 83 2.2 NE 17 20 9 11 1009.4 - 0.2
30/04:00pm 28.3 31.3 25.2 83 2.2 ENE 19 26 10 14 1009.2 - 0.2
30/03:30pm 28.3 30.3 25.8 86 1.8 NE 26 33 14 18 1009.2 - 0.2
30/03:00pm 30.2 33.7 25.5 76 3.3 ENE 17 24 9 13 1009.4 - 0.2
30/02:30pm 30.0 33.4 25.9 78 2.9 ENE 19 24 10 13 1009.5 - 0.2
30/02:00pm 28.7 31.0 25.1 81 2.5 NE 22 28 12 15 1009.8 1009.7 0.2
30/01:30pm 28.7 31.0 25.7 84 2.1 E 24 32 13 17 1010.1 - 0.2
30/01:00pm 29.3 32.5 25.9 82 2.4 ENE 20 26 11 14 1010.3 - 0.2
30/12:30pm 28.8 31.0 25.5 82 2.3 ENE 24 32 13 17 1010.4 - 0.2
30/12:00pm 28.6 32.4 25.9 85 1.9 ENE 17 24 9 13 1010.9 - 0.2
30/11:30am 28.1 30.6 26.0 88 1.5 E 24 28 13 15 1011.1 - 0.2
30/11:00am 27.5 29.9 25.8 90 1.2 E 24 28 13 15 1011.2 1011.1 23.4
30/10:30am 28.4 32.8 25.6 85 2.0 E 13 19 7 10 1011.2 - 23.0
30/10:00am 28.1 32.3 25.4 85 1.9 E 13 19 7 10 1011.2 - 23.0
30/09:30am 27.7 31.5 25.3 87 1.7 E 15 20 8 11 1010.9 - 23.0
30/09:00am 26.8 28.6 24.3 86 1.7 E 22 30 12 16 1010.7 - 23.0
30/08:30am 27.5 31.7 25.4 88 1.5 ESE 13 17 7 9 1010.5 - 23.0
30/08:00am 27.3 30.7 25.2 88 1.5 ESE 17 22 9 12 1010.1 1010.0 23.0
30/07:30am 27.2 31.2 25.1 88 1.5 E 13 17 7 9 1009.9 - 23.0
30/07:06am 27.1 30.6 25.4 90 1.2 ESE 17 24 9 13 1009.5 - 23.0
30/07:00am 27.0 29.8 25.3 90 1.2 ESE 20 24 11 13 1009.5 - 23.0
30/06:40am 26.7 27.9 24.5 88 1.5 NE 26 35 14 19 1009.4 - 21.0
30/06:30am 26.7 27.7 24.2 86 1.7 ENE 26 32 14 17 1009.4 - 20.4
30/06:00am 27.2 30.0 24.9 87 1.6 SE 19 24 10 13 1009.3 - 20.4
30/05:44am 27.1 29.0 25.0 88 1.5 SE 24 30 13 16 1009.4 - 20.4
30/05:30am 27.1 29.4 25.1 89 1.4 SE 22 33 12 18 1009.3 - 20.4
30/05:06am 27.2 30.6 25.3 89 1.3 ESE 17 24 9 13 1009.2 - 20.4
30/05:00am 27.4 30.8 25.3 88 1.5 ESE 17 20 9 11 1009.2 1009.1 20.4
30/04:30am 27.4 30.4 24.7 85 1.9 ESE 17 22 9 12 1009.2 - 20.4
30/04:00am 27.1 30.4 25.1 89 1.4 SE 17 20 9 11 1009.4 - 20.4
30/03:41am 26.8 30.1 24.5 87 1.6 ESE 15 22 8 12 1009.5 - 20.4
30/03:30am 26.6 29.3 24.7 89 1.3 SE 19 22 10 12 1009.7 - 20.4
30/03:22am 26.5 29.3 24.9 91 1.1 ESE 19 24 10 13 1009.8 - 20.4
30/03:00am 26.3 29.2 24.4 89 1.3 ESE 17 24 9 13 1010.0 - 20.4
30/02:30am 26.7 30.1 24.7 89 1.4 ESE 15 28 8 15 1010.2 - 20.2
30/02:00am 26.8 30.5 25.2 91 1.1 ESE 15 20 8 11 1010.3 1010.2 20.2
30/01:49am 26.6 31.2 25.3 93 0.9 ESE 11 17 6 9 1010.5 - 20.2
30/01:30am 25.4 29.4 24.4 94 0.7 SE 11 17 6 9 1010.7 - 20.0
30/01:16am 24.5 29.6 23.3 93 0.8 NE 2 9 1 5 1011.0 - 16.8
30/01:00am 25.2 27.4 23.9 92 0.9 E 19 24 10 13 1011.2 - 6.4
30/12:48am 25.9 26.8 23.9 89 1.4 ENE 26 35 14 19 1011.1 - 0.2
30/12:30am 27.7 31.0 25.1 86 1.8 ESE 17 22 9 12 1010.9 - 0.2
30/12:00am 26.8 29.0 24.2 86 1.8 SE 20 30 11 16 1011.2 - 0.2
 
Date/Time
WST
Temp
°C
App
Temp
°C
Dew
Point
Rel
Hum
%
Delta-T
°C
Wind Press
QNH
hPa
Press
MSL
hPa
Rain
since 9 am
mm
Dir
 
Spd
km/h
Gust
km/h
Spd
kts
Gust
kts
29/11:30pm 27.2 29.9 24.8 87 1.7 SE 19 26 10 14 1011.1 - 0.2
29/11:00pm 26.9 28.9 24.0 84 2.0 ESE 20 26 11 14 1011.5 1011.4 0.2
29/10:30pm 27.9 30.7 25.0 84 2.0 ESE 19 24 10 13 1011.5 - 0.2
29/10:00pm 27.9 31.1 25.0 84 2.0 ESE 17 22 9 12 1011.2 - 0.2
29/09:30pm 27.8 30.5 25.1 85 1.9 ESE 20 24 11 13 1011.0 - 0.2
29/09:00pm 27.8 31.0 24.9 84 2.0 ESE 17 22 9 12 1010.8 - 0.2
29/08:30pm 27.8 30.2 24.6 83 2.2 SE 20 24 11 13 1010.3 - 0.2
29/08:00pm 27.9 30.2 24.4 81 2.4 ESE 20 24 11 13 1010.0 1009.9 0.2
29/07:30pm 27.9 30.3 24.6 82 2.3 ESE 20 30 11 16 1009.9 - 0.2
29/07:00pm 28.2 31.9 25.2 84 2.1 ESE 15 20 8 11 1009.9 - 0.2
29/06:30pm 28.4 31.8 24.7 80 2.6 E 15 20 8 11 1009.8 - 0.2
29/06:00pm 28.5 31.7 24.9 81 2.5 E 17 20 9 11 1009.6 - 0.2
29/05:30pm 28.8 32.5 25.2 81 2.5 E 15 22 8 12 1009.6 - 0.2
29/05:00pm 28.8 32.5 25.1 80 2.6 E 15 20 8 11 1009.5 1009.4 0.2
29/04:30pm 28.6 31.4 25.0 81 2.5 ESE 19 24 10 13 1009.6 - 0.2
29/04:00pm 28.7 31.4 25.1 81 2.5 ESE 20 28 11 15 1009.6 - 0.2
29/03:30pm 28.7 31.0 24.5 78 2.9 ESE 20 28 11 15 1009.5 - 0.2
29/03:00pm 28.7 32.1 25.3 82 2.4 ESE 17 24 9 13 1009.7 - 0.2
29/02:30pm 28.7 31.6 25.1 81 2.5 ESE 19 24 10 13 1010.0 - 0.2
29/02:00pm 28.6 31.1 24.7 79 2.7 ESE 20 28 11 15 1010.3 1010.2 0.2
29/01:30pm 28.4 30.6 24.8 81 2.5 ESE 22 30 12 16 1010.8 - 0.2
29/01:00pm 28.5 30.7 24.9 81 2.5 SE 22 30 12 16 1011.2 - 0.2
29/12:30pm 28.7 31.0 25.0 80 2.6 ESE 22 30 12 16 1011.8 - 0.2
29/12:00pm 29.1 31.8 24.8 77 3.0 ESE 19 26 10 14 1011.9 - 0.2
29/11:30am 28.6 30.9 25.0 81 2.5 ESE 22 28 12 15 1012.0 - 0.2
29/11:00am 28.7 31.2 24.8 79 2.7 ESE 20 28 11 15 1012.0 1011.9 5.2
29/10:30am 28.5 31.2 24.8 80 2.6 ESE 19 26 10 14 1012.0 - 5.2
29/10:00am 28.1 30.8 24.7 82 2.4 E 19 26 10 14 1011.9 - 5.2
29/09:30am 27.9 30.3 24.3 81 2.5 ESE 19 28 10 15 1011.7 - 5.2
29/09:00am 27.7 29.9 24.2 81 2.4 ESE 20 32 11 17 1011.4 - 5.2
29/08:30am 27.6 29.8 24.3 82 2.3 ESE 20 30 11 16 1011.1 - 5.2
29/08:00am 27.5 28.4 24.0 81 2.4 ESE 26 32 14 17 1010.7 1010.6 5.2
29/07:30am 27.5 28.7 23.9 81 2.5 ESE 24 35 13 19 1010.5 - 5.2
29/07:00am 27.5 28.8 24.0 81 2.4 ESE 24 33 13 18 1010.4 - 5.2
29/06:30am 27.4 29.9 24.5 84 2.0 ESE 19 28 10 15 1010.1 - 5.2
29/06:00am 27.3 30.2 24.4 84 2.0 ESE 17 28 9 15 1010.0 - 5.2
29/05:30am 27.5 29.7 24.2 82 2.3 ESE 20 28 11 15 1009.7 - 5.2
29/05:00am 27.5 29.2 24.0 81 2.4 ESE 22 30 12 16 1009.5 1009.4 5.2
29/04:30am 27.6 28.6 24.1 81 2.4 ESE 26 32 14 17 1009.6 - 5.2
29/04:00am 27.5 29.5 24.5 84 2.1 ESE 22 28 12 15 1009.8 - 5.2
29/03:30am 27.4 29.1 24.1 82 2.3 ESE 22 28 12 15 1010.0 - 5.2
29/03:00am 27.7 28.7 24.2 81 2.4 ESE 26 35 14 19 1010.2 - 5.2
29/02:30am 27.6 29.8 24.3 82 2.3 ESE 20 30 11 16 1010.4 - 5.2
29/02:00am 27.7 29.1 24.2 81 2.4 ESE 24 33 13 18 1010.7 1010.6 5.2
29/01:30am 27.6 29.5 24.4 83 2.2 ESE 22 32 12 17 1011.1 - 5.2
29/01:00am 27.7 28.8 24.4 82 2.3 ESE 26 33 14 18 1011.3 - 5.2
29/12:30am 27.7 28.9 23.9 80 2.6 ESE 24 32 13 17 1011.5 - 5.2
29/12:00am 27.5 29.9 24.6 84 2.0 ESE 20 28 11 15 1011.8 - 5.2
 
Date/Time
WST
Temp
°C
App
Temp
°C
Dew
Point
Rel
Hum
%
Delta-T
°C
Wind Press
QNH
hPa
Press
MSL
hPa
Rain
since 9 am
mm
Dir
 
Spd
km/h
Gust
km/h
Spd
kts
Gust
kts
28/11:34pm 27.2 30.7 24.9 87 1.6 E 15 26 8 14 1012.0 - 5.2
28/11:30pm 26.9 30.5 25.0 89 1.3 E 15 20 8 11 1012.0 - 5.2
28/11:15pm 26.4 26.2 24.1 87 1.6 ESE 32 43 17 23 1012.2 - 5.2
28/11:00pm 27.7 30.4 24.8 84 2.0 E 19 26 10 14 1012.2 1012.1 4.6
28/10:30pm 27.3 30.3 24.7 86 1.8 E 17 22 9 12 1012.3 - 4.6
28/10:00pm 27.1 30.0 24.4 85 1.9 E 17 22 9 12 1012.4 - 4.6
28/09:30pm 26.9 29.9 24.6 87 1.6 E 17 26 9 14 1012.3 - 4.6
28/09:00pm 26.0 28.8 23.7 87 1.6 E 15 22 8 12 1011.9 - 4.6
28/08:30pm 25.5 27.3 23.3 88 1.5 ESE 19 24 10 13 1011.8 - 4.6
28/08:26pm 25.6 27.5 23.5 88 1.4 ESE 19 26 10 14 1011.8 - 4.6
28/08:05pm 25.7 27.2 24.4 92 0.9 ESE 24 37 13 20 1012.0 - 4.4
28/08:00pm 26.3 28.8 24.4 89 1.3 ESE 19 37 10 20 1012.0 1011.9 4.2
28/07:30pm 25.8 27.4 23.8 89 1.4 E 22 32 12 17 1011.8 - 4.0
28/07:00pm 26.9 29.1 24.0 84 2.0 ESE 19 26 10 14 1011.5 - 3.8
28/06:48pm 26.6 28.9 24.1 86 1.7 E 19 24 10 13 1011.3 - 3.8
28/06:30pm 26.4 27.5 25.0 92 1.0 E 28 39 15 21 1011.1 - 3.8
28/06:27pm 26.3 26.5 24.7 91 1.1 E 32 39 17 21 1011.1 - 3.8
28/06:08pm 26.8 27.2 25.1 90 1.2 ENE 32 44 17 24 1010.8 - 3.4
28/06:00pm 26.6 26.0 24.9 90 1.2 ENE 37 50 20 27 1010.8 - 3.4
28/05:57pm 26.4 26.0 24.7 90 1.2 ENE 35 50 19 27 1010.7 - 3.4
28/05:30pm 27.8 29.8 24.6 83 2.2 ESE 22 33 12 18 1010.8 - 3.4
28/05:00pm 27.9 30.2 24.4 81 2.4 ESE 20 30 11 16 1010.5 1010.4 3.4
28/04:30pm 27.9 29.2 25.2 85 1.9 E 28 41 15 22 1010.5 - 3.4
28/04:00pm 27.7 28.1 25.0 85 1.9 ESE 32 39 17 21 1010.5 - 3.4
28/03:36pm 28.1 29.8 25.3 85 2.0 E 26 35 14 19 1010.6 - 3.4
28/03:30pm 27.8 29.9 25.4 87 1.7 ESE 24 35 13 19 1010.7 - 3.4
28/03:22pm 27.3 28.4 25.5 90 1.3 E 30 43 16 23 1010.7 - 3.4
28/03:00pm 28.2 29.3 25.5 85 1.9 SE 30 41 16 22 1010.6 - 3.4
28/02:30pm 28.8 30.2 24.8 79 2.8 ESE 26 37 14 20 1011.1 - 3.4
28/02:00pm 29.1 31.3 24.8 77 3.0 ESE 22 32 12 17 1011.4 1011.3 3.4
28/01:30pm 28.9 30.7 24.9 79 2.8 ESE 24 35 13 19 1011.6 - 3.2
28/01:00pm 28.5 32.6 25.7 85 2.0 ESE 15 24 8 13 1012.0 - 3.2
28/12:45pm 28.2 31.4 25.6 86 1.8 E 19 22 10 12 1012.2 - 3.2
28/12:30pm 26.4 27.6 24.5 89 1.3 E 26 33 14 18 1012.5 - 3.2
28/12:19pm 26.7 28.1 24.8 89 1.3 ESE 26 37 14 20 1012.7 - 2.0
28/12:00pm 28.4 31.8 25.3 83 2.2 E 17 20 9 11 1012.6 - 1.8
28/11:56am 28.1 32.0 25.4 85 1.9 E 15 20 8 11 1012.6 - 1.8
28/11:34am 26.5 26.1 24.6 89 1.3 E 35 39 19 21 1012.9 - 0.8
28/11:30am 28.2 31.0 25.2 84 2.1 ESE 20 39 11 21 1012.8 - 0.0
28/11:00am 28.1 30.4 25.0 83 2.2 ESE 22 28 12 15 1012.6 1012.5 2.0
28/10:30am 28.1 32.3 25.3 85 2.0 E 13 17 7 9 1012.6 - 2.0
28/10:24am 27.8 31.5 25.2 86 1.8 E 15 19 8 10 1012.7 - 2.0
28/10:09am 26.9 28.9 25.2 90 1.2 E 24 30 13 16 1012.7 - 2.0
28/10:08am 26.8 28.6 24.9 89 1.3 ENE 24 30 13 16 1012.7 - 2.0
28/10:00am 26.9 29.7 25.2 90 1.2 E 20 26 11 14 1012.6 - 2.0
28/09:48am 26.7 29.0 25.1 91 1.1 E 22 30 12 16 1012.6 - 1.8
28/09:30am 27.2 31.1 24.8 87 1.7 E 13 20 7 11 1012.4 - 1.6
28/09:00am 27.2 30.0 25.2 89 1.4 E 20 26 11 14 1012.2 - 1.6
28/08:49am 27.0 29.8 25.0 89 1.4 E 19 22 10 12 1012.2 - 1.6
28/08:31am 26.4 28.0 24.5 89 1.3 ESE 24 32 13 17 1012.1 - 1.6
28/08:30am 26.5 28.2 24.6 89 1.3 ESE 24 32 13 17 1012.1 - 1.4
28/08:00am 27.1 30.5 24.7 87 1.7 E 15 22 8 12 1011.5 1011.4 1.4
28/07:30am 27.0 29.9 24.4 86 1.8 ESE 17 24 9 13 1011.5 - 1.4
28/07:00am 26.9 29.2 24.1 85 1.9 E 19 26 10 14 1011.6 - 1.4
28/06:30am 26.7 30.2 24.8 89 1.3 E 15 20 8 11 1011.4 - 1.4
28/06:06am 26.6 29.2 24.9 90 1.2 ESE 20 26 11 14 1011.4 - 1.4
28/06:00am 26.4 28.7 25.0 92 1.0 ESE 22 28 12 15 1011.4 - 1.4
28/05:48am 26.3 28.6 25.0 92 0.9 SE 22 33 12 18 1011.4 - 1.4
28/05:30am 26.5 28.7 24.8 90 1.2 SE 22 32 12 17 1011.4 - 1.0
28/05:00am 26.9 28.6 24.6 87 1.6 SE 24 32 13 17 1011.3 1011.2 1.0
28/04:43am 26.9 27.8 24.6 87 1.6 SE 28 35 15 19 1011.4 - 1.0
28/04:31am 27.0 27.9 24.6 87 1.7 SE 28 37 15 20 1011.5 - 1.0
28/04:30am 27.0 27.9 24.6 87 1.7 SE 28 37 15 20 1011.5 - 1.0
28/04:00am 27.0 28.1 24.3 85 1.9 ESE 26 35 14 19 1011.5 - 1.0
28/03:30am 26.5 28.7 24.2 87 1.6 ESE 20 26 11 14 1011.6 - 1.0
28/03:19am 26.1 29.0 24.5 91 1.1 ESE 17 26 9 14 1011.7 - 1.0
28/03:03am 25.7 26.1 24.5 93 0.8 ESE 30 43 16 23 1012.0 - 1.0
28/03:01am 25.8 26.2 24.5 92 0.9 ESE 30 43 16 23 1012.0 - 1.0
28/03:00am 25.8 25.9 24.5 92 0.9 ESE 32 43 17 23 1012.1 - 1.0
28/02:50am 26.5 28.7 24.8 90 1.2 ESE 22 35 12 19 1012.1 - 1.0
28/02:49am 26.5 28.7 24.9 91 1.1 ESE 22 32 12 17 1012.1 - 1.0
28/02:31am 26.0 26.2 24.7 92 0.9 ESE 32 44 17 24 1012.4 - 1.0
28/02:30am 26.0 26.6 24.7 92 0.9 ESE 30 44 16 24 1012.5 - 1.0
28/02:09am 26.1 28.0 25.0 94 0.8 E 24 33 13 18 1012.7 - 1.0
28/02:02am 26.1 28.1 25.1 94 0.7 ESE 24 32 13 17 1012.9 - 1.0
28/02:00am 26.2 28.0 24.9 92 0.9 ESE 24 32 13 17 1013.0 1012.9 1.0
28/01:54am 25.9 26.4 24.6 92 0.9 E 30 48 16 26 1013.0 - 1.0
28/01:36am 27.4 28.0 24.2 83 2.2 ESE 28 35 15 19 1012.9 - 0.2
28/01:30am 27.4 28.4 24.2 83 2.2 ESE 26 35 14 19 1012.9 - 0.2
28/01:00am 27.4 27.2 24.1 82 2.3 SE 32 39 17 21 1013.1 - 0.2
28/12:30am 27.4 27.6 24.7 85 1.9 ESE 32 41 17 22 1013.4 - 0.2
28/12:00am 27.6 27.4 24.1 81 2.4 SE 32 39 17 21 1013.6 - 0.2
 
Date/Time
WST
Temp
°C
App
Temp
°C
Dew
Point
Rel
Hum
%
Delta-T
°C
Wind Press
QNH
hPa
Press
MSL
hPa
Rain
since 9 am
mm
Dir
 
Spd
km/h
Gust
km/h
Spd
kts
Gust
kts
27/11:35pm 27.1 28.2 24.4 85 1.9 ESE 26 41 14 22 1013.7 - 0.2
27/11:30pm 27.1 29.4 24.4 85 1.9 SE 20 41 11 22 1013.8 - 0.2
27/11:15pm 26.6 28.7 25.3 93 0.9 SE 24 32 13 17 1013.8 - 0.2
27/11:02pm 26.5 28.8 25.1 92 1.0 SE 22 28 12 15 1013.8 - 0.2
27/11:00pm 26.5 29.1 24.9 91 1.1 ESE 20 28 11 15 1013.7 1013.6 0.2
27/10:51pm 26.2 27.6 24.8 92 1.0 ESE 26 35 14 19 1013.8 - 0.2
27/10:30pm 27.1 28.1 24.7 87 1.7 ESE 28 35 15 19 1013.5 - 0.2
27/10:06pm 26.7 28.1 24.8 89 1.3 SE 26 35 14 19 1013.6 - 0.2
27/10:00pm 26.2 27.5 24.6 91 1.1 SE 26 35 14 19 1013.7 - 0.2
27/09:44pm 26.3 26.9 24.7 91 1.1 ESE 30 48 16 26 1013.6 - 0.0
27/09:41pm 26.7 26.9 24.7 89 1.4 ESE 32 48 17 26 1013.6 - 0.0
27/09:30pm 27.8 28.1 24.3 81 2.4 SE 30 39 16 21 1013.3 - 0.0
27/09:00pm 27.9 28.6 24.3 81 2.5 ESE 28 35 15 19 1013.1 - 0.0
27/08:30pm 27.9 29.0 24.9 84 2.1 SE 28 33 15 18 1012.8 - 0.0

Other Formats:

Comma delimited format used in spreadsheet applications
http://www.bom.gov.au/fwo/IDW60801/IDW60801.96996.axf

JavaScript Object Notation format (JSON) in row-major order
http://www.bom.gov.au/fwo/IDW60801/IDW60801.96996.json